sensor_id;sensor_type;location;lat;lon;timestamp;P1;durP1;ratioP1;P2;durP2;ratioP2
25984;SDS011;66753;53.848;10.658;2023-08-06T00:14:37;5.00;;;1.77;;
25984;SDS011;66753;53.848;10.658;2023-08-06T00:29:39;4.53;;;1.73;;
25984;SDS011;66753;53.848;10.658;2023-08-06T00:44:40;4.83;;;1.90;;
25984;SDS011;66753;53.848;10.658;2023-08-06T00:59:41;3.07;;;1.67;;
25984;SDS011;66753;53.848;10.658;2023-08-06T01:14:57;3.37;;;1.40;;
25984;SDS011;66753;53.848;10.658;2023-08-06T01:30:22;5.77;;;1.97;;
25984;SDS011;66753;53.848;10.658;2023-08-06T01:45:29;5.30;;;1.63;;
25984;SDS011;66753;53.848;10.658;2023-08-06T02:00:30;4.47;;;2.03;;
25984;SDS011;66753;53.848;10.658;2023-08-06T02:15:32;5.10;;;2.00;;
25984;SDS011;66753;53.848;10.658;2023-08-06T02:30:33;5.23;;;2.07;;
25984;SDS011;66753;53.848;10.658;2023-08-06T02:45:34;4.43;;;1.90;;
25984;SDS011;66753;53.848;10.658;2023-08-06T03:00:36;4.10;;;1.90;;
25984;SDS011;66753;53.848;10.658;2023-08-06T03:15:37;3.80;;;1.63;;
25984;SDS011;66753;53.848;10.658;2023-08-06T03:30:38;6.83;;;2.07;;
25984;SDS011;66753;53.848;10.658;2023-08-06T03:45:40;5.90;;;2.37;;
25984;SDS011;66753;53.848;10.658;2023-08-06T04:00:42;4.27;;;2.20;;
25984;SDS011;66753;53.848;10.658;2023-08-06T04:15:43;5.23;;;2.20;;
25984;SDS011;66753;53.848;10.658;2023-08-06T04:30:44;5.43;;;1.97;;
25984;SDS011;66753;53.848;10.658;2023-08-06T04:45:49;6.90;;;2.00;;
25984;SDS011;66753;53.848;10.658;2023-08-06T05:00:52;4.50;;;2.00;;
25984;SDS011;66753;53.848;10.658;2023-08-06T05:15:55;5.17;;;2.70;;
25984;SDS011;66753;53.848;10.658;2023-08-06T05:30:57;8.03;;;2.23;;
25984;SDS011;66753;53.848;10.658;2023-08-06T05:45:59;5.53;;;2.10;;
25984;SDS011;66753;53.848;10.658;2023-08-06T06:01:01;6.73;;;2.27;;
25984;SDS011;66753;53.848;10.658;2023-08-06T06:16:03;5.27;;;2.47;;
25984;SDS011;66753;53.848;10.658;2023-08-06T06:31:05;4.63;;;2.03;;
25984;SDS011;66753;53.848;10.658;2023-08-06T06:46:06;3.70;;;2.40;;
25984;SDS011;66753;53.848;10.658;2023-08-06T07:01:08;5.33;;;2.53;;
25984;SDS011;66753;53.848;10.658;2023-08-06T07:16:11;6.73;;;2.97;;
25984;SDS011;66753;53.848;10.658;2023-08-06T07:31:13;5.47;;;2.37;;
25984;SDS011;66753;53.848;10.658;2023-08-06T07:46:14;5.13;;;2.13;;
25984;SDS011;66753;53.848;10.658;2023-08-06T08:01:15;7.50;;;2.73;;
25984;SDS011;66753;53.848;10.658;2023-08-06T08:16:18;6.30;;;3.20;;
25984;SDS011;66753;53.848;10.658;2023-08-06T08:31:20;6.37;;;3.00;;
25984;SDS011;66753;53.848;10.658;2023-08-06T08:46:21;5.83;;;3.00;;
25984;SDS011;66753;53.848;10.658;2023-08-06T09:01:24;5.33;;;2.83;;
25984;SDS011;66753;53.848;10.658;2023-08-06T09:16:26;5.80;;;2.67;;
25984;SDS011;66753;53.848;10.658;2023-08-06T09:31:32;5.07;;;3.00;;
25984;SDS011;66753;53.848;10.658;2023-08-06T09:46:53;5.63;;;3.47;;
25984;SDS011;66753;53.848;10.658;2023-08-06T10:01:57;4.67;;;2.30;;
25984;SDS011;66753;53.848;10.658;2023-08-06T10:16:59;6.90;;;2.10;;
25984;SDS011;66753;53.848;10.658;2023-08-06T10:32:01;4.60;;;1.80;;
25984;SDS011;66753;53.848;10.658;2023-08-06T11:02:29;5.83;;;1.40;;
25984;SDS011;66753;53.848;10.658;2023-08-06T11:32:44;2.07;;;1.07;;
25984;SDS011;66753;53.848;10.658;2023-08-06T11:47:49;3.57;;;1.10;;
25984;SDS011;66753;53.848;10.658;2023-08-06T12:02:54;2.93;;;1.20;;
25984;SDS011;66753;53.848;10.658;2023-08-06T12:17:57;3.13;;;1.00;;
25984;SDS011;66753;53.848;10.658;2023-08-06T12:32:59;4.87;;;1.20;;
25984;SDS011;66753;53.848;10.658;2023-08-06T12:48:01;3.70;;;1.40;;
25984;SDS011;66753;53.848;10.658;2023-08-06T13:03:03;1.97;;;1.10;;
25984;SDS011;66753;53.848;10.658;2023-08-06T13:18:05;3.00;;;1.13;;
25984;SDS011;66753;53.848;10.658;2023-08-06T13:33:10;3.30;;;1.50;;
25984;SDS011;66753;53.848;10.658;2023-08-06T13:48:13;4.97;;;1.37;;
25984;SDS011;66753;53.848;10.658;2023-08-06T14:03:15;4.30;;;1.53;;
25984;SDS011;66753;53.848;10.658;2023-08-06T14:18:17;3.67;;;1.47;;
25984;SDS011;66753;53.848;10.658;2023-08-06T14:33:19;4.57;;;1.33;;
25984;SDS011;66753;53.848;10.658;2023-08-06T14:48:21;2.90;;;1.27;;
25984;SDS011;66753;53.848;10.658;2023-08-06T15:03:23;2.87;;;1.50;;
25984;SDS011;66753;53.848;10.658;2023-08-06T15:18:25;3.77;;;1.30;;
25984;SDS011;66753;53.848;10.658;2023-08-06T15:33:26;2.90;;;1.43;;
25984;SDS011;66753;53.848;10.658;2023-08-06T15:48:28;3.50;;;1.43;;
25984;SDS011;66753;53.848;10.658;2023-08-06T16:03:29;2.57;;;1.47;;
25984;SDS011;66753;53.848;10.658;2023-08-06T16:18:31;2.90;;;1.20;;
25984;SDS011;66753;53.848;10.658;2023-08-06T16:33:32;2.90;;;1.40;;
25984;SDS011;66753;53.848;10.658;2023-08-06T17:03:37;4.23;;;1.47;;
25984;SDS011;66753;53.848;10.658;2023-08-06T17:18:39;4.03;;;1.70;;
25984;SDS011;66753;53.848;10.658;2023-08-06T17:33:41;3.07;;;1.40;;
25984;SDS011;66753;53.848;10.658;2023-08-06T17:48:43;4.40;;;1.17;;
25984;SDS011;66753;53.848;10.658;2023-08-06T18:03:45;3.70;;;1.80;;
25984;SDS011;66753;53.848;10.658;2023-08-06T18:18:48;4.83;;;1.90;;
25984;SDS011;66753;53.848;10.658;2023-08-06T18:33:53;4.73;;;2.07;;
25984;SDS011;66753;53.848;10.658;2023-08-06T18:48:55;4.20;;;2.00;;
25984;SDS011;66753;53.848;10.658;2023-08-06T19:18:58;3.00;;;1.47;;
25984;SDS011;66753;53.848;10.658;2023-08-06T19:34:00;4.07;;;1.73;;
25984;SDS011;66753;53.848;10.658;2023-08-06T19:49:02;4.97;;;1.70;;
25984;SDS011;66753;53.848;10.658;2023-08-06T20:04:04;4.17;;;1.63;;
25984;SDS011;66753;53.848;10.658;2023-08-06T20:19:05;4.77;;;1.80;;
25984;SDS011;66753;53.848;10.658;2023-08-06T20:34:08;4.17;;;1.63;;
25984;SDS011;66753;53.848;10.658;2023-08-06T20:49:09;3.13;;;1.33;;
25984;SDS011;66753;53.848;10.658;2023-08-06T21:04:11;5.33;;;1.80;;
25984;SDS011;66753;53.848;10.658;2023-08-06T21:19:14;4.00;;;1.60;;
25984;SDS011;66753;53.848;10.658;2023-08-06T21:34:16;5.93;;;1.60;;
25984;SDS011;66753;53.848;10.658;2023-08-06T21:49:18;4.87;;;1.43;;
25984;SDS011;66753;53.848;10.658;2023-08-06T22:04:20;4.27;;;1.63;;
25984;SDS011;66753;53.848;10.658;2023-08-06T22:19:21;4.00;;;1.40;;
25984;SDS011;66753;53.848;10.658;2023-08-06T22:34:23;3.33;;;1.60;;
25984;SDS011;66753;53.848;10.658;2023-08-06T22:49:24;4.90;;;1.80;;
25984;SDS011;66753;53.848;10.658;2023-08-06T23:04:26;3.33;;;1.70;;
25984;SDS011;66753;53.848;10.658;2023-08-06T23:19:28;4.70;;;1.63;;
25984;SDS011;66753;53.848;10.658;2023-08-06T23:34:30;2.90;;;1.47;;
25984;SDS011;66753;53.848;10.658;2023-08-06T23:49:32;4.47;;;1.73;;
